HOURLY OBSERVATIONS


Time
(EST)
Temperature
°F
Dew Point
°F
Humidity
%
Wind
mph
Pressure
mb
Precip.
Hour
in
Precip.
Day
in
6 Hr
Max Temp
°F
6 Hr
Min Temp
°F
27 01:00 52.9 50.9 93 SW 0 G 3 1015.5 0.00 65.7 52.9
27 00:00 54.1 51.2 90 SW 1 G 3 1015.6 0.02 0.03
26 23:00 55.1 51.3 87 SW 0 G 3 1016.1 0.01
26 22:00 56.0 51.2 84 N 2 G 5 1016.1 0.01 0.01
26 21:00 57.5 51.7 81 WNW 2 G 6 1016.2 0.00
26 20:00 63.3 52.6 68 ENE 1 G 5 1015.3 0.00
26 19:00 65.7 52.3 62 WSW 0 G 1 1015.5 0.00 69.7 65.6
26 18:00 0.0 0.0 0 Calm 0.0 0.00
26 17:00 68.0 49.7 52 WSW 1 G 6 1015.6 0.00
26 16:00 68.3 50.0 52 SW 1 G 6 1015.7 0.00
26 15:00 69.2 50.8 52 W 2 G 9 1016.2 0.00
26 14:00 67.5 50.8 55 WSW 2 G 8 1016.5 0.00
26 13:00 67.7 52.4 58 WSW 2 G 8 1016.5 0.00 67.8 59.9
26 12:00 67.7 53.3 60 W 3 G 9 1016.8 0.00
26 11:00 65.8 54.1 66 NW 2 G 4 1017.0 0.00
26 10:00 66.6 53.6 63 WSW 4 G 11 1017.1 0.00
26 09:00 65.2 54.0 67 SW 3 G 9 1017.2 0.00
26 08:00 63.4 52.7 68 SW 2 G 7 1017.3 0.00
26 07:00 59.9 52.0 75 SSW 2 G 5 1017.4 0.00 59.9 55.0
26 05:00 55.6 49.2 79 SW 0 G 1 1017.0 0.00
26 04:00 57.1 50.0 77 SW 1 G 6 1016.8 0.00
26 03:00 56.5 50.1 79 SW 0 G 3 1016.7 0.00
26 02:00 57.1 50.0 77 Calm 1016.8 0.00
26 01:00 59.2 50.2 72 SW 0 G 6 1017.1 0.00 68.6 59.2
26 00:00 59.4 49.6 70 SW 1 G 3 1017.4 0.00
25 23:00 60.5 49.5 67 SW 1 G 4 1017.3 0.00
25 22:00 61.8 49.5 64 SW 0 G 4 1017.6 0.00
25 21:00 63.5 49.8 61 SW 0 G 4 1017.3 0.00
25 20:00 68.1 48.8 50 WSW 1 G 7 1016.7 0.00
25 19:00 68.6 49.2 50 SW 1 G 6 1016.5 0.00 72.8 68.5
25 18:00 69.9 48.7 47 W 3 G 9 1016.4 0.00
25 17:00 71.4 47.7 43 WSW 3 G 10 1016.4 0.00
25 16:00 71.9 47.6 42 W 4 G 16 1016.4 0.00
25 15:00 72.6 48.2 42 W 4 G 13 1016.1 0.00
25 14:00 72.3 48.5 43 W 6 G 21 1016.2 0.00
25 13:00 72.7 50.1 45 W 5 G 29 1016.0 0.00 72.9 61.2
25 12:00 71.2 50.5 48 W 5 G 20 1016.4 0.00
25 11:00 70.1 51.1 51 WSW 3 G 12 1016.9 0.00
25 10:00 68.6 50.8 53 WSW 3 G 13 1017.1 0.00
25 09:00 66.2 55.7 69 WSW 2 G 8 1017.2 0.00
25 08:00 62.3 55.4 78 SW 2 G 9 1016.7 0.00
25 07:00 58.1 53.6 85 W 0 G 2 1016.3 0.00 64.4 57.3
25 06:00 57.5 53.7 87 Calm 1015.8 0.00
25 05:00 59.1 54.6 85 Calm 1015.6 0.00
25 04:00 60.7 55.5 83 WSW 0 G 1 1015.4 0.00
25 03:00 61.3 56.4 84 WSW 0 G 1 1015.6 0.00
25 02:00 63.9 56.9 78 Calm 1015.7 0.00
25 01:00 63.9 56.9 78 Calm 1015.7 0.00 70.5 63.9
25 00:00 64.7 57.0 76 Calm 1015.8 0.08
24 23:00 65.8 57.3 74 Calm 1015.4 0.08
24 22:00 67.5 57.0 69 WNW 0 G 1 1015.3 0.08
24 21:00 69.3 57.0 65 WSW 1 G 5 1014.2 0.08
24 20:00 69.5 58.1 67 S 0 G 2 1013.4 0.08
24 19:00 70.5 59.4 68 WSW 1 G 3 1012.8 0.01 0.08 76.8 70.5
24 18:00 74.8 58.1 56 W 1 G 4 1012.3 0.07
24 17:00 76.0 57.1 52 NNW 1 G 8 1012.1 0.07
24 16:00 76.7 58.3 53 NW 3 G 8 1012.2 0.07
24 15:00 74.7 57.0 54 WSW 3 G 6 1012.2 0.07
24 14:00 74.5 58.3 57 W 4 G 8 1012.1 0.01 0.07
24 13:00 75.3 59.0 57 W 4 G 10 1011.5 0.06 75.3 64.2
24 12:00 73.7 60.3 63 W 1 G 4 1011.3 0.06
24 11:00 72.5 60.9 67 WSW 2 G 6 1011.1 0.01 0.06
24 10:00 72.0 61.7 70 W 2 G 5 1010.8 0.05
24 09:00 70.2 60.4 71 SW 4 G 9 1010.5 0.05
24 08:00 66.7 58.5 75 W 2 G 6 1010.1 0.01 0.05
24 07:00 64.2 58.6 82 SW 1 G 11 1009.8 0.04 67.3 60.6
24 06:00 60.7 57.8 90 W 1 G 3 1009.2 0.01 0.04
24 05:00 61.2 58.6 91 WSW 0 G 3 1008.7 0.03
24 04:00 62.7 60.9 94 SW 0 G 3 1007.7 0.01 0.03
24 03:00 64.2 62.4 94 SW 0 G 2 1006.8 0.02
24 02:00 65.7 63.9 94 WSW 1 G 3 1006.2 0.01 0.02